Terminal Aerodrome Forecast
Issued by NWS Wilmington, OH

Current Version | Previous Version | Graphics & Text | Print | Product List | Glossary On
Versions: 1 2 3 4 5 6 7 8 9 10 11 12 13 14 15 16 17 18 19 20 21 22 23 24 25 26 27 28
000
FTUS41 KILN 220800 AAB
TAFCVG
TAF AMD
KCVG 220803Z 2208/2312 36006KT P6SM BKN035
     FM221000 35008KT P6SM BKN015
     FM221300 35008KT P6SM BKN025
     FM221800 35008KT P6SM SCT030
     FM230000 01004KT P6SM SKC=

USA.gov is the U.S. government's official web portal to all federal, state and local government web resources and services.